首页
METAR-TAF:

METAR-TAF

机场 :

Grafenwöhr, 德国

纬度: 49-42N, 经度: 011-57E, 海拔: 415米

当前天气观测

该预报发布于49分钟前的13:56 UTC
静风
温度 18°C
湿度 64%
气压 1016 hPa
能见度10公里或以上
散云层高于3400英尺
阴天层高于9000英尺

METAR: ETIC 041356Z AUTO 00000KT 9999 SCT034 OVC090 18/11 A2999 RMK AO2 SLP150 T01800113 $

时间: 16:45 (14:45 UTC)

预报

该预报发布于4小时和45分钟前的10:00 UTC
预报有效从04日的 10点(UTC)到 05日的 16点(UTC)
风速9节,风向
能见度10公里或以上
少量云层高于2000英尺
散云层高于3000英尺
多云层高于5000英尺
短暂存在
从 04日的 10点(UTC)到 04日的 17点(UTC)
能見度: 8000
多云层高于3000英尺
小阵雨
成为
从 04日的 17点(UTC)到 04日的 18点(UTC)
风速6节,风向多变
能见度10公里或以上
散云层高于1500英尺
多云层高于3000英尺
成为
从 04日的 21点(UTC)到 04日的 22点(UTC)
风速6节,风向多变
能見度: 8000
散云层高于1000英尺
多云层高于3000英尺
轻雾
短暂存在
从 05日的 02点(UTC)到 05日的 06点(UTC)
能見度: 5000
多云层高于1000英尺
小毛毛雨, 轻雾
成为
从 05日的 08点(UTC)到 05日的 09点(UTC)
风速9节,风向东转东北
能见度10公里或以上
少量云层高于2500英尺
多云层高于5000英尺

TAF: ETIC 041000Z 0410/0516 36009KT 9999 FEW020 SCT030 BKN050 QNH2995INS TEMPO 0410/0417 8000 -SHRA BKN030 BECMG 0417/0418 VRB06KT 9999 SCT015 BKN030 QNH2999INS BECMG 0421/0422 VRB06KT 8000 BR SCT010 BKN030 QNH3001INS TEMPO 0502/0506 5000 -DZ BR BKN010 BECMG 0508/0509 06009KT 9999 NSW FEW025 BKN050 QNH3010INS TX17/0414Z TN09/0502Z

超过4000个机场的气象观测和天气预报(METAR&TAF报告)。

可查询的气象台以黄色和红色小点在地图上表示。

将鼠标移到小点上方,可查看气象台名称。

然后点击查看天气观测和预报。

如需切换地图:点击带黑十字的绿色按钮放大地图;点击带横线的绿色按钮缩小地图;或者点击绿色箭头查看邻近地区的地图。


METAR-TAF: